sensor_id;sensor_type;location;lat;lon;timestamp;P1;durP1;ratioP1;P2;durP2;ratioP2
12654;SDS011;6392;44.644;11.448;2023-03-14T00:00:14;9.90;;;6.80;;
12654;SDS011;6392;44.644;11.448;2023-03-14T00:02:42;11.97;;;6.93;;
12654;SDS011;6392;44.644;11.448;2023-03-14T00:05:09;9.87;;;6.83;;
12654;SDS011;6392;44.644;11.448;2023-03-14T00:07:39;9.13;;;7.03;;
12654;SDS011;6392;44.644;11.448;2023-03-14T00:10:07;9.80;;;7.13;;
12654;SDS011;6392;44.644;11.448;2023-03-14T00:12:35;8.70;;;6.80;;
12654;SDS011;6392;44.644;11.448;2023-03-14T00:15:02;12.73;;;7.47;;
12654;SDS011;6392;44.644;11.448;2023-03-14T00:17:32;12.57;;;8.00;;
12654;SDS011;6392;44.644;11.448;2023-03-14T00:19:59;10.70;;;7.83;;
12654;SDS011;6392;44.644;11.448;2023-03-14T00:22:33;11.87;;;7.40;;
12654;SDS011;6392;44.644;11.448;2023-03-14T00:25:02;11.67;;;8.13;;
12654;SDS011;6392;44.644;11.448;2023-03-14T00:27:31;10.77;;;8.57;;
12654;SDS011;6392;44.644;11.448;2023-03-14T00:29:58;12.53;;;9.03;;
12654;SDS011;6392;44.644;11.448;2023-03-14T00:32:25;11.43;;;8.80;;
12654;SDS011;6392;44.644;11.448;2023-03-14T00:34:52;10.03;;;8.23;;
12654;SDS011;6392;44.644;11.448;2023-03-14T00:37:19;13.40;;;8.33;;
12654;SDS011;6392;44.644;11.448;2023-03-14T00:39:46;12.10;;;8.53;;
12654;SDS011;6392;44.644;11.448;2023-03-14T00:42:15;11.03;;;8.03;;
12654;SDS011;6392;44.644;11.448;2023-03-14T00:44:42;11.93;;;8.70;;
12654;SDS011;6392;44.644;11.448;2023-03-14T00:47:09;12.97;;;8.27;;
12654;SDS011;6392;44.644;11.448;2023-03-14T00:49:36;13.00;;;9.23;;
12654;SDS011;6392;44.644;11.448;2023-03-14T00:52:03;16.73;;;9.67;;
12654;SDS011;6392;44.644;11.448;2023-03-14T00:54:30;11.50;;;8.10;;
12654;SDS011;6392;44.644;11.448;2023-03-14T00:56:57;13.60;;;9.33;;
12654;SDS011;6392;44.644;11.448;2023-03-14T00:59:26;11.63;;;8.63;;
12654;SDS011;6392;44.644;11.448;2023-03-14T01:01:53;12.03;;;8.63;;
12654;SDS011;6392;44.644;11.448;2023-03-14T01:04:20;10.53;;;8.07;;
12654;SDS011;6392;44.644;11.448;2023-03-14T01:06:47;10.73;;;7.87;;
12654;SDS011;6392;44.644;11.448;2023-03-14T01:09:14;11.57;;;8.03;;
12654;SDS011;6392;44.644;11.448;2023-03-14T01:11:42;11.17;;;8.77;;
12654;SDS011;6392;44.644;11.448;2023-03-14T01:14:11;13.43;;;7.73;;
12654;SDS011;6392;44.644;11.448;2023-03-14T01:16:40;9.27;;;7.30;;
12654;SDS011;6392;44.644;11.448;2023-03-14T01:19:08;9.20;;;7.30;;
12654;SDS011;6392;44.644;11.448;2023-03-14T01:21:35;12.03;;;7.53;;
12654;SDS011;6392;44.644;11.448;2023-03-14T01:24:03;9.73;;;6.13;;
12654;SDS011;6392;44.644;11.448;2023-03-14T01:26:32;10.50;;;6.00;;
12654;SDS011;6392;44.644;11.448;2023-03-14T01:29:01;7.07;;;4.80;;
12654;SDS011;6392;44.644;11.448;2023-03-14T01:31:29;8.40;;;4.90;;
12654;SDS011;6392;44.644;11.448;2023-03-14T01:33:57;7.47;;;3.80;;
12654;SDS011;6392;44.644;11.448;2023-03-14T01:36:25;5.00;;;3.10;;
12654;SDS011;6392;44.644;11.448;2023-03-14T01:38:52;7.57;;;2.87;;
12654;SDS011;6392;44.644;11.448;2023-03-14T01:41:20;5.50;;;2.67;;
12654;SDS011;6392;44.644;11.448;2023-03-14T01:43:49;5.47;;;2.73;;
12654;SDS011;6392;44.644;11.448;2023-03-14T01:46:24;5.30;;;1.47;;
12654;SDS011;6392;44.644;11.448;2023-03-14T01:49:10;4.17;;;1.27;;
12654;SDS011;6392;44.644;11.448;2023-03-14T01:51:45;5.17;;;1.47;;
12654;SDS011;6392;44.644;11.448;2023-03-14T01:54:18;3.97;;;1.50;;
12654;SDS011;6392;44.644;11.448;2023-03-14T01:56:48;1.70;;;0.97;;
12654;SDS011;6392;44.644;11.448;2023-03-14T01:59:20;4.90;;;1.10;;
12654;SDS011;6392;44.644;11.448;2023-03-14T02:01:47;3.93;;;1.47;;
12654;SDS011;6392;44.644;11.448;2023-03-14T02:04:19;5.17;;;1.37;;
12654;SDS011;6392;44.644;11.448;2023-03-14T02:06:48;3.10;;;0.90;;
12654;SDS011;6392;44.644;11.448;2023-03-14T02:09:19;4.87;;;0.90;;
12654;SDS011;6392;44.644;11.448;2023-03-14T02:11:47;4.50;;;1.03;;
12654;SDS011;6392;44.644;11.448;2023-03-14T02:14:19;6.13;;;1.13;;
12654;SDS011;6392;44.644;11.448;2023-03-14T02:16:53;6.63;;;1.10;;
12654;SDS011;6392;44.644;11.448;2023-03-14T02:19:27;1.97;;;1.57;;
12654;SDS011;6392;44.644;11.448;2023-03-14T02:22:03;3.03;;;0.97;;
12654;SDS011;6392;44.644;11.448;2023-03-14T02:24:36;3.63;;;1.40;;
12654;SDS011;6392;44.644;11.448;2023-03-14T02:27:10;3.80;;;0.93;;
12654;SDS011;6392;44.644;11.448;2023-03-14T02:29:39;6.93;;;1.30;;
12654;SDS011;6392;44.644;11.448;2023-03-14T02:32:11;3.60;;;1.30;;
12654;SDS011;6392;44.644;11.448;2023-03-14T02:34:39;4.27;;;1.20;;
12654;SDS011;6392;44.644;11.448;2023-03-14T02:37:08;2.00;;;1.20;;
12654;SDS011;6392;44.644;11.448;2023-03-14T02:39:36;2.50;;;1.17;;
12654;SDS011;6392;44.644;11.448;2023-03-14T02:42:06;3.77;;;0.93;;
12654;SDS011;6392;44.644;11.448;2023-03-14T02:44:34;5.23;;;0.97;;
12654;SDS011;6392;44.644;11.448;2023-03-14T02:47:02;4.00;;;1.13;;
12654;SDS011;6392;44.644;11.448;2023-03-14T02:49:30;4.83;;;1.27;;
12654;SDS011;6392;44.644;11.448;2023-03-14T02:51:59;2.47;;;1.13;;
12654;SDS011;6392;44.644;11.448;2023-03-14T02:54:26;1.57;;;0.93;;
12654;SDS011;6392;44.644;11.448;2023-03-14T02:56:53;4.20;;;0.90;;
12654;SDS011;6392;44.644;11.448;2023-03-14T02:59:20;4.63;;;0.93;;
12654;SDS011;6392;44.644;11.448;2023-03-14T03:01:49;3.03;;;1.33;;
12654;SDS011;6392;44.644;11.448;2023-03-14T03:04:16;4.30;;;1.10;;
12654;SDS011;6392;44.644;11.448;2023-03-14T03:06:43;3.70;;;1.23;;
12654;SDS011;6392;44.644;11.448;2023-03-14T03:09:10;4.20;;;0.87;;
12654;SDS011;6392;44.644;11.448;2023-03-14T03:11:37;5.40;;;1.10;;
12654;SDS011;6392;44.644;11.448;2023-03-14T03:14:04;5.60;;;1.40;;
12654;SDS011;6392;44.644;11.448;2023-03-14T03:16:31;2.97;;;0.90;;
12654;SDS011;6392;44.644;11.448;2023-03-14T03:18:59;1.63;;;0.87;;
12654;SDS011;6392;44.644;11.448;2023-03-14T03:21:26;1.90;;;0.80;;
12654;SDS011;6392;44.644;11.448;2023-03-14T03:23:53;3.80;;;0.87;;
12654;SDS011;6392;44.644;11.448;2023-03-14T03:26:20;5.77;;;0.90;;
12654;SDS011;6392;44.644;11.448;2023-03-14T03:28:47;2.73;;;1.27;;
12654;SDS011;6392;44.644;11.448;2023-03-14T03:31:16;3.77;;;1.03;;
12654;SDS011;6392;44.644;11.448;2023-03-14T03:33:44;3.57;;;1.00;;
12654;SDS011;6392;44.644;11.448;2023-03-14T03:36:12;5.20;;;1.00;;
12654;SDS011;6392;44.644;11.448;2023-03-14T03:38:39;5.10;;;0.90;;
12654;SDS011;6392;44.644;11.448;2023-03-14T03:41:06;3.30;;;1.23;;
12654;SDS011;6392;44.644;11.448;2023-03-14T03:43:33;2.50;;;0.83;;
12654;SDS011;6392;44.644;11.448;2023-03-14T03:46:02;2.17;;;0.97;;
12654;SDS011;6392;44.644;11.448;2023-03-14T03:48:30;4.73;;;1.27;;
12654;SDS011;6392;44.644;11.448;2023-03-14T03:50:57;4.67;;;0.87;;
12654;SDS011;6392;44.644;11.448;2023-03-14T03:53:25;2.23;;;0.87;;
12654;SDS011;6392;44.644;11.448;2023-03-14T03:55:52;2.47;;;1.20;;
12654;SDS011;6392;44.644;11.448;2023-03-14T03:58:19;2.93;;;0.80;;
12654;SDS011;6392;44.644;11.448;2023-03-14T04:00:46;3.60;;;0.93;;
12654;SDS011;6392;44.644;11.448;2023-03-14T04:03:13;2.43;;;0.80;;
12654;SDS011;6392;44.644;11.448;2023-03-14T04:05:40;3.53;;;0.80;;
12654;SDS011;6392;44.644;11.448;2023-03-14T04:08:07;5.50;;;0.90;;
12654;SDS011;6392;44.644;11.448;2023-03-14T04:10:36;1.80;;;0.97;;
12654;SDS011;6392;44.644;11.448;2023-03-14T04:13:03;3.90;;;1.00;;
12654;SDS011;6392;44.644;11.448;2023-03-14T04:15:30;3.17;;;1.10;;
12654;SDS011;6392;44.644;11.448;2023-03-14T04:17:57;1.93;;;1.03;;
12654;SDS011;6392;44.644;11.448;2023-03-14T04:20:24;3.03;;;0.90;;
12654;SDS011;6392;44.644;11.448;2023-03-14T04:22:51;2.10;;;0.90;;
12654;SDS011;6392;44.644;11.448;2023-03-14T04:25:18;4.57;;;0.80;;
12654;SDS011;6392;44.644;11.448;2023-03-14T04:27:47;3.20;;;1.10;;
12654;SDS011;6392;44.644;11.448;2023-03-14T04:30:14;2.47;;;1.00;;
12654;SDS011;6392;44.644;11.448;2023-03-14T04:32:41;4.13;;;0.80;;
12654;SDS011;6392;44.644;11.448;2023-03-14T04:35:08;1.00;;;0.80;;
12654;SDS011;6392;44.644;11.448;2023-03-14T04:37:35;4.03;;;0.97;;
12654;SDS011;6392;44.644;11.448;2023-03-14T04:40:02;2.00;;;1.13;;
12654;SDS011;6392;44.644;11.448;2023-03-14T04:42:31;1.97;;;0.90;;
12654;SDS011;6392;44.644;11.448;2023-03-14T04:45:00;4.27;;;0.87;;
12654;SDS011;6392;44.644;11.448;2023-03-14T04:47:27;2.07;;;0.80;;
12654;SDS011;6392;44.644;11.448;2023-03-14T04:49:54;5.03;;;0.93;;
12654;SDS011;6392;44.644;11.448;2023-03-14T04:52:21;3.70;;;1.00;;
12654;SDS011;6392;44.644;11.448;2023-03-14T04:54:48;2.03;;;1.00;;
12654;SDS011;6392;44.644;11.448;2023-03-14T04:57:15;4.73;;;0.80;;
12654;SDS011;6392;44.644;11.448;2023-03-14T04:59:42;2.00;;;1.17;;
12654;SDS011;6392;44.644;11.448;2023-03-14T05:02:10;2.97;;;0.83;;
12654;SDS011;6392;44.644;11.448;2023-03-14T05:04:37;3.80;;;1.10;;
12654;SDS011;6392;44.644;11.448;2023-03-14T05:07:04;4.80;;;1.53;;
12654;SDS011;6392;44.644;11.448;2023-03-14T05:09:31;5.00;;;0.70;;
12654;SDS011;6392;44.644;11.448;2023-03-14T05:11:58;2.47;;;0.87;;
12654;SDS011;6392;44.644;11.448;2023-03-14T05:14:26;1.83;;;0.73;;
12654;SDS011;6392;44.644;11.448;2023-03-14T05:16:53;3.53;;;1.03;;
12654;SDS011;6392;44.644;11.448;2023-03-14T05:19:21;2.90;;;1.30;;
12654;SDS011;6392;44.644;11.448;2023-03-14T05:21:48;2.67;;;1.00;;
12654;SDS011;6392;44.644;11.448;2023-03-14T05:24:15;1.57;;;0.93;;
12654;SDS011;6392;44.644;11.448;2023-03-14T05:26:42;5.27;;;1.13;;
12654;SDS011;6392;44.644;11.448;2023-03-14T05:29:09;3.17;;;1.30;;
12654;SDS011;6392;44.644;11.448;2023-03-14T05:31:36;4.03;;;1.73;;
12654;SDS011;6392;44.644;11.448;2023-03-14T05:34:03;7.23;;;2.70;;
12654;SDS011;6392;44.644;11.448;2023-03-14T05:36:31;4.13;;;1.93;;
12654;SDS011;6392;44.644;11.448;2023-03-14T05:38:58;3.43;;;1.03;;
12654;SDS011;6392;44.644;11.448;2023-03-14T05:41:25;2.07;;;0.80;;
12654;SDS011;6392;44.644;11.448;2023-03-14T05:43:52;4.67;;;0.83;;
12654;SDS011;6392;44.644;11.448;2023-03-14T05:46:19;2.60;;;1.03;;
12654;SDS011;6392;44.644;11.448;2023-03-14T05:48:46;2.87;;;1.20;;
12654;SDS011;6392;44.644;11.448;2023-03-14T05:51:13;2.63;;;0.87;;
12654;SDS011;6392;44.644;11.448;2023-03-14T05:53:42;3.77;;;1.40;;
12654;SDS011;6392;44.644;11.448;2023-03-14T05:56:09;4.03;;;0.90;;
12654;SDS011;6392;44.644;11.448;2023-03-14T05:58:36;2.67;;;1.03;;
12654;SDS011;6392;44.644;11.448;2023-03-14T06:01:03;2.87;;;1.00;;
12654;SDS011;6392;44.644;11.448;2023-03-14T06:03:31;2.93;;;1.17;;
12654;SDS011;6392;44.644;11.448;2023-03-14T06:05:59;2.97;;;1.07;;
12654;SDS011;6392;44.644;11.448;2023-03-14T06:08:26;3.87;;;1.43;;
12654;SDS011;6392;44.644;11.448;2023-03-14T06:10:56;4.60;;;1.23;;
12654;SDS011;6392;44.644;11.448;2023-03-14T06:13:23;3.37;;;1.23;;
12654;SDS011;6392;44.644;11.448;2023-03-14T06:15:50;3.57;;;1.33;;
12654;SDS011;6392;44.644;11.448;2023-03-14T06:18:17;3.57;;;0.80;;
12654;SDS011;6392;44.644;11.448;2023-03-14T06:20:44;3.30;;;1.20;;
12654;SDS011;6392;44.644;11.448;2023-03-14T06:23:11;2.27;;;0.80;;
12654;SDS011;6392;44.644;11.448;2023-03-14T06:25:38;4.43;;;1.40;;
12654;SDS011;6392;44.644;11.448;2023-03-14T06:28:07;4.57;;;1.20;;
12654;SDS011;6392;44.644;11.448;2023-03-14T06:30:34;1.17;;;0.70;;
12654;SDS011;6392;44.644;11.448;2023-03-14T06:33:01;3.53;;;1.10;;
12654;SDS011;6392;44.644;11.448;2023-03-14T06:35:28;3.13;;;1.20;;
12654;SDS011;6392;44.644;11.448;2023-03-14T06:37:55;1.73;;;0.70;;
12654;SDS011;6392;44.644;11.448;2023-03-14T06:40:22;3.33;;;1.00;;
12654;SDS011;6392;44.644;11.448;2023-03-14T06:42:49;5.53;;;1.10;;
12654;SDS011;6392;44.644;11.448;2023-03-14T06:45:17;4.83;;;1.20;;
12654;SDS011;6392;44.644;11.448;2023-03-14T06:47:44;4.67;;;1.20;;
12654;SDS011;6392;44.644;11.448;2023-03-14T06:50:11;3.13;;;1.30;;
12654;SDS011;6392;44.644;11.448;2023-03-14T06:52:38;3.70;;;1.17;;
12654;SDS011;6392;44.644;11.448;2023-03-14T06:55:06;5.53;;;1.00;;
12654;SDS011;6392;44.644;11.448;2023-03-14T06:57:34;3.67;;;1.00;;
12654;SDS011;6392;44.644;11.448;2023-03-14T07:00:01;5.10;;;1.80;;
12654;SDS011;6392;44.644;11.448;2023-03-14T07:02:30;3.03;;;1.03;;
12654;SDS011;6392;44.644;11.448;2023-03-14T07:04:57;6.13;;;1.00;;
12654;SDS011;6392;44.644;11.448;2023-03-14T07:07:25;3.30;;;1.00;;
12654;SDS011;6392;44.644;11.448;2023-03-14T07:09:52;1.93;;;0.90;;
12654;SDS011;6392;44.644;11.448;2023-03-14T07:12:20;7.20;;;1.57;;
12654;SDS011;6392;44.644;11.448;2023-03-14T07:14:47;3.10;;;0.97;;
12654;SDS011;6392;44.644;11.448;2023-03-14T07:17:14;2.63;;;0.90;;
12654;SDS011;6392;44.644;11.448;2023-03-14T07:19:42;8.97;;;1.50;;
12654;SDS011;6392;44.644;11.448;2023-03-14T07:22:09;4.73;;;1.30;;
12654;SDS011;6392;44.644;11.448;2023-03-14T07:24:36;4.83;;;1.13;;
12654;SDS011;6392;44.644;11.448;2023-03-14T07:27:03;6.37;;;1.10;;
12654;SDS011;6392;44.644;11.448;2023-03-14T07:29:30;4.43;;;1.47;;
12654;SDS011;6392;44.644;11.448;2023-03-14T07:31:57;4.80;;;1.30;;
12654;SDS011;6392;44.644;11.448;2023-03-14T07:34:24;6.57;;;1.10;;
12654;SDS011;6392;44.644;11.448;2023-03-14T07:36:53;3.50;;;1.40;;
12654;SDS011;6392;44.644;11.448;2023-03-14T07:39:20;4.10;;;1.47;;
12654;SDS011;6392;44.644;11.448;2023-03-14T07:41:47;3.00;;;0.90;;
12654;SDS011;6392;44.644;11.448;2023-03-14T07:44:14;2.50;;;1.17;;
12654;SDS011;6392;44.644;11.448;2023-03-14T07:46:41;5.53;;;1.13;;
12654;SDS011;6392;44.644;11.448;2023-03-14T07:49:08;4.70;;;1.23;;
12654;SDS011;6392;44.644;11.448;2023-03-14T07:51:35;7.23;;;1.43;;
12654;SDS011;6392;44.644;11.448;2023-03-14T07:54:03;4.77;;;1.37;;
12654;SDS011;6392;44.644;11.448;2023-03-14T07:56:30;5.83;;;1.10;;
12654;SDS011;6392;44.644;11.448;2023-03-14T07:58:57;6.03;;;1.40;;
12654;SDS011;6392;44.644;11.448;2023-03-14T08:01:24;4.83;;;1.50;;
12654;SDS011;6392;44.644;11.448;2023-03-14T08:03:51;3.00;;;1.03;;
12654;SDS011;6392;44.644;11.448;2023-03-14T08:06:18;7.57;;;1.70;;
12654;SDS011;6392;44.644;11.448;2023-03-14T08:08:46;4.83;;;1.70;;
12654;SDS011;6392;44.644;11.448;2023-03-14T08:11:14;4.77;;;1.30;;
12654;SDS011;6392;44.644;11.448;2023-03-14T08:13:41;3.60;;;1.47;;
12654;SDS011;6392;44.644;11.448;2023-03-14T08:16:14;2.50;;;1.30;;
12654;SDS011;6392;44.644;11.448;2023-03-14T08:18:41;3.73;;;1.30;;
12654;SDS011;6392;44.644;11.448;2023-03-14T08:21:08;4.30;;;1.60;;
12654;SDS011;6392;44.644;11.448;2023-03-14T08:23:35;2.83;;;1.40;;
12654;SDS011;6392;44.644;11.448;2023-03-14T08:26:02;3.80;;;1.07;;
12654;SDS011;6392;44.644;11.448;2023-03-14T08:28:31;3.33;;;1.00;;
12654;SDS011;6392;44.644;11.448;2023-03-14T08:30:58;4.30;;;1.70;;
12654;SDS011;6392;44.644;11.448;2023-03-14T08:33:26;4.43;;;1.20;;
12654;SDS011;6392;44.644;11.448;2023-03-14T08:35:54;3.10;;;1.10;;
12654;SDS011;6392;44.644;11.448;2023-03-14T08:38:23;3.90;;;1.30;;
12654;SDS011;6392;44.644;11.448;2023-03-14T08:40:54;5.17;;;1.30;;
12654;SDS011;6392;44.644;11.448;2023-03-14T08:43:22;2.90;;;1.50;;
12654;SDS011;6392;44.644;11.448;2023-03-14T08:45:51;1.90;;;1.00;;
12654;SDS011;6392;44.644;11.448;2023-03-14T08:48:18;3.67;;;1.30;;
12654;SDS011;6392;44.644;11.448;2023-03-14T08:50:45;1.83;;;0.93;;
12654;SDS011;6392;44.644;11.448;2023-03-14T08:53:12;5.67;;;1.07;;
12654;SDS011;6392;44.644;11.448;2023-03-14T08:55:39;5.17;;;1.50;;
12654;SDS011;6392;44.644;11.448;2023-03-14T08:58:06;1.80;;;1.20;;
12654;SDS011;6392;44.644;11.448;2023-03-14T09:00:33;4.60;;;1.00;;
12654;SDS011;6392;44.644;11.448;2023-03-14T09:03:01;2.43;;;1.00;;
12654;SDS011;6392;44.644;11.448;2023-03-14T09:05:28;3.07;;;1.60;;
12654;SDS011;6392;44.644;11.448;2023-03-14T09:07:58;2.43;;;1.07;;
12654;SDS011;6392;44.644;11.448;2023-03-14T09:10:26;5.40;;;1.70;;
12654;SDS011;6392;44.644;11.448;2023-03-14T09:12:53;4.20;;;1.03;;
12654;SDS011;6392;44.644;11.448;2023-03-14T09:15:20;4.60;;;1.20;;
12654;SDS011;6392;44.644;11.448;2023-03-14T09:17:47;6.87;;;1.60;;
12654;SDS011;6392;44.644;11.448;2023-03-14T09:20:15;3.10;;;1.23;;
12654;SDS011;6392;44.644;11.448;2023-03-14T09:22:43;3.73;;;1.47;;
12654;SDS011;6392;44.644;11.448;2023-03-14T09:25:10;1.93;;;1.10;;
12654;SDS011;6392;44.644;11.448;2023-03-14T09:27:37;7.67;;;1.47;;
12654;SDS011;6392;44.644;11.448;2023-03-14T09:30:04;2.30;;;1.13;;
12654;SDS011;6392;44.644;11.448;2023-03-14T09:32:32;3.00;;;1.10;;
12654;SDS011;6392;44.644;11.448;2023-03-14T09:34:59;3.13;;;1.10;;
12654;SDS011;6392;44.644;11.448;2023-03-14T09:37:28;1.80;;;1.00;;
12654;SDS011;6392;44.644;11.448;2023-03-14T09:39:55;2.93;;;1.03;;
12654;SDS011;6392;44.644;11.448;2023-03-14T09:42:22;3.63;;;1.00;;
12654;SDS011;6392;44.644;11.448;2023-03-14T09:44:53;7.60;;;1.80;;
12654;SDS011;6392;44.644;11.448;2023-03-14T09:47:22;3.83;;;1.10;;
12654;SDS011;6392;44.644;11.448;2023-03-14T09:49:50;5.07;;;1.50;;
12654;SDS011;6392;44.644;11.448;2023-03-14T09:52:19;6.07;;;1.60;;
12654;SDS011;6392;44.644;11.448;2023-03-14T09:54:51;3.50;;;1.37;;
12654;SDS011;6392;44.644;11.448;2023-03-14T09:57:21;1.77;;;1.13;;
12654;SDS011;6392;44.644;11.448;2023-03-14T09:59:50;3.77;;;1.10;;
12654;SDS011;6392;44.644;11.448;2023-03-14T10:02:20;3.10;;;1.60;;
12654;SDS011;6392;44.644;11.448;2023-03-14T10:04:49;4.53;;;1.27;;
12654;SDS011;6392;44.644;11.448;2023-03-14T10:07:19;3.93;;;1.07;;
12654;SDS011;6392;44.644;11.448;2023-03-14T10:09:53;4.40;;;1.00;;
12654;SDS011;6392;44.644;11.448;2023-03-14T10:12:20;4.43;;;1.33;;
12654;SDS011;6392;44.644;11.448;2023-03-14T10:14:57;2.50;;;1.07;;
12654;SDS011;6392;44.644;11.448;2023-03-14T10:17:29;4.23;;;1.20;;
12654;SDS011;6392;44.644;11.448;2023-03-14T10:20:04;3.43;;;1.30;;
12654;SDS011;6392;44.644;11.448;2023-03-14T10:22:32;3.50;;;1.07;;
12654;SDS011;6392;44.644;11.448;2023-03-14T10:25:02;3.70;;;0.97;;
12654;SDS011;6392;44.644;11.448;2023-03-14T10:27:31;4.10;;;0.77;;
12654;SDS011;6392;44.644;11.448;2023-03-14T10:30:02;1.40;;;0.90;;
12654;SDS011;6392;44.644;11.448;2023-03-14T10:32:33;4.67;;;0.90;;
12654;SDS011;6392;44.644;11.448;2023-03-14T10:35:11;1.83;;;0.90;;
12654;SDS011;6392;44.644;11.448;2023-03-14T10:37:53;2.40;;;0.70;;
12654;SDS011;6392;44.644;11.448;2023-03-14T10:40:25;1.20;;;0.73;;
12654;SDS011;6392;44.644;11.448;2023-03-14T10:42:55;2.13;;;0.90;;
12654;SDS011;6392;44.644;11.448;2023-03-14T10:45:33;4.53;;;0.93;;
12654;SDS011;6392;44.644;11.448;2023-03-14T10:48:07;0.67;;;0.57;;
12654;SDS011;6392;44.644;11.448;2023-03-14T10:50:48;3.10;;;1.13;;
12654;SDS011;6392;44.644;11.448;2023-03-14T10:53:20;0.87;;;0.80;;
12654;SDS011;6392;44.644;11.448;2023-03-14T10:55:49;3.40;;;0.67;;
12654;SDS011;6392;44.644;11.448;2023-03-14T10:58:26;1.70;;;0.60;;
12654;SDS011;6392;44.644;11.448;2023-03-14T11:00:59;0.83;;;0.70;;
12654;SDS011;6392;44.644;11.448;2023-03-14T11:03:33;1.70;;;0.97;;
12654;SDS011;6392;44.644;11.448;2023-03-14T11:06:04;1.13;;;0.60;;
12654;SDS011;6392;44.644;11.448;2023-03-14T11:08:37;1.53;;;0.70;;
12654;SDS011;6392;44.644;11.448;2023-03-14T11:11:15;1.03;;;0.60;;
12654;SDS011;6392;44.644;11.448;2023-03-14T11:13:49;3.43;;;0.87;;
12654;SDS011;6392;44.644;11.448;2023-03-14T11:16:25;0.90;;;0.60;;
12654;SDS011;6392;44.644;11.448;2023-03-14T11:19:03;4.03;;;0.90;;
12654;SDS011;6392;44.644;11.448;2023-03-14T11:21:46;3.37;;;0.90;;
12654;SDS011;6392;44.644;11.448;2023-03-14T11:24:27;5.17;;;0.90;;
12654;SDS011;6392;44.644;11.448;2023-03-14T11:27:17;0.67;;;0.53;;
12654;SDS011;6392;44.644;11.448;2023-03-14T11:29:50;1.30;;;0.90;;
12654;SDS011;6392;44.644;11.448;2023-03-14T11:32:24;1.37;;;0.70;;
12654;SDS011;6392;44.644;11.448;2023-03-14T11:35:03;2.00;;;0.70;;
12654;SDS011;6392;44.644;11.448;2023-03-14T11:37:40;0.47;;;0.40;;
12654;SDS011;6392;44.644;11.448;2023-03-14T11:40:13;0.50;;;0.40;;
12654;SDS011;6392;44.644;11.448;2023-03-14T11:42:46;1.30;;;0.80;;
12654;SDS011;6392;44.644;11.448;2023-03-14T11:45:20;1.03;;;0.57;;
12654;SDS011;6392;44.644;11.448;2023-03-14T11:48:05;2.27;;;0.70;;
12654;SDS011;6392;44.644;11.448;2023-03-14T11:50:39;2.67;;;0.67;;
12654;SDS011;6392;44.644;11.448;2023-03-14T11:53:09;1.10;;;0.60;;
12654;SDS011;6392;44.644;11.448;2023-03-14T11:55:40;0.97;;;0.70;;
12654;SDS011;6392;44.644;11.448;2023-03-14T11:58:11;2.07;;;0.90;;
12654;SDS011;6392;44.644;11.448;2023-03-14T12:00:42;1.07;;;0.50;;
12654;SDS011;6392;44.644;11.448;2023-03-14T12:03:11;1.20;;;0.60;;
12654;SDS011;6392;44.644;11.448;2023-03-14T12:05:46;1.43;;;0.63;;
12654;SDS011;6392;44.644;11.448;2023-03-14T12:11:13;3.33;;;0.70;;
12654;SDS011;6392;44.644;11.448;2023-03-14T12:13:49;1.37;;;0.60;;
12654;SDS011;6392;44.644;11.448;2023-03-14T12:16:30;2.57;;;0.90;;
12654;SDS011;6392;44.644;11.448;2023-03-14T12:19:14;2.30;;;1.00;;
12654;SDS011;6392;44.644;11.448;2023-03-14T12:21:57;2.27;;;0.83;;
12654;SDS011;6392;44.644;11.448;2023-03-14T12:24:28;5.07;;;1.10;;
12654;SDS011;6392;44.644;11.448;2023-03-14T12:26:58;2.20;;;0.97;;
12654;SDS011;6392;44.644;11.448;2023-03-14T12:29:28;1.33;;;1.00;;
12654;SDS011;6392;44.644;11.448;2023-03-14T12:32:12;2.27;;;0.73;;
12654;SDS011;6392;44.644;11.448;2023-03-14T12:34:49;4.57;;;1.40;;
12654;SDS011;6392;44.644;11.448;2023-03-14T12:37:19;2.43;;;1.80;;
12654;SDS011;6392;44.644;11.448;2023-03-14T12:39:58;5.13;;;2.20;;
12654;SDS011;6392;44.644;11.448;2023-03-14T12:42:38;3.77;;;2.10;;
12654;SDS011;6392;44.644;11.448;2023-03-14T12:45:15;8.17;;;3.47;;
12654;SDS011;6392;44.644;11.448;2023-03-14T12:47:51;5.73;;;3.60;;
12654;SDS011;6392;44.644;11.448;2023-03-14T12:50:29;3.83;;;3.10;;
12654;SDS011;6392;44.644;11.448;2023-03-14T12:53:07;2.97;;;2.43;;
12654;SDS011;6392;44.644;11.448;2023-03-14T12:56:02;5.20;;;3.30;;
12654;SDS011;6392;44.644;11.448;2023-03-14T12:58:38;8.43;;;4.20;;
12654;SDS011;6392;44.644;11.448;2023-03-14T13:01:15;5.90;;;3.30;;
12654;SDS011;6392;44.644;11.448;2023-03-14T13:03:45;5.07;;;3.80;;
12654;SDS011;6392;44.644;11.448;2023-03-14T13:12:16;5.67;;;3.60;;
12654;SDS011;6392;44.644;11.448;2023-03-14T13:14:44;7.90;;;4.40;;
12654;SDS011;6392;44.644;11.448;2023-03-14T13:17:15;8.23;;;4.93;;
12654;SDS011;6392;44.644;11.448;2023-03-14T13:19:50;7.10;;;5.13;;
12654;SDS011;6392;44.644;11.448;2023-03-14T13:22:20;8.17;;;4.90;;
12654;SDS011;6392;44.644;11.448;2023-03-14T13:24:56;8.17;;;4.77;;
12654;SDS011;6392;44.644;11.448;2023-03-14T13:27:26;6.73;;;4.67;;
12654;SDS011;6392;44.644;11.448;2023-03-14T13:29:53;5.30;;;3.97;;
12654;SDS011;6392;44.644;11.448;2023-03-14T13:32:22;8.27;;;4.60;;
12654;SDS011;6392;44.644;11.448;2023-03-14T13:34:55;5.80;;;4.10;;
12654;SDS011;6392;44.644;11.448;2023-03-14T13:37:23;5.97;;;4.27;;
12654;SDS011;6392;44.644;11.448;2023-03-14T13:39:51;12.57;;;4.93;;
12654;SDS011;6392;44.644;11.448;2023-03-14T13:42:20;4.80;;;4.20;;
12654;SDS011;6392;44.644;11.448;2023-03-14T13:44:50;6.27;;;4.47;;
12654;SDS011;6392;44.644;11.448;2023-03-14T13:47:20;7.03;;;4.03;;
12654;SDS011;6392;44.644;11.448;2023-03-14T13:49:50;7.27;;;4.70;;
12654;SDS011;6392;44.644;11.448;2023-03-14T13:52:21;5.73;;;3.67;;
12654;SDS011;6392;44.644;11.448;2023-03-14T13:54:55;6.73;;;4.77;;
12654;SDS011;6392;44.644;11.448;2023-03-14T13:57:23;7.90;;;5.00;;
12654;SDS011;6392;44.644;11.448;2023-03-14T13:59:59;8.50;;;4.97;;
12654;SDS011;6392;44.644;11.448;2023-03-14T14:02:32;8.17;;;4.60;;
12654;SDS011;6392;44.644;11.448;2023-03-14T14:05:02;7.60;;;4.80;;
12654;SDS011;6392;44.644;11.448;2023-03-14T14:07:30;10.50;;;4.90;;
12654;SDS011;6392;44.644;11.448;2023-03-14T14:09:57;7.00;;;3.87;;
12654;SDS011;6392;44.644;11.448;2023-03-14T14:12:27;8.77;;;5.17;;
12654;SDS011;6392;44.644;11.448;2023-03-14T14:14:58;9.77;;;5.30;;
12654;SDS011;6392;44.644;11.448;2023-03-14T14:17:29;7.43;;;5.53;;
12654;SDS011;6392;44.644;11.448;2023-03-14T14:20:01;10.17;;;5.13;;
12654;SDS011;6392;44.644;11.448;2023-03-14T14:22:33;9.10;;;5.13;;
12654;SDS011;6392;44.644;11.448;2023-03-14T14:25:01;6.90;;;4.87;;
12654;SDS011;6392;44.644;11.448;2023-03-14T14:27:32;7.87;;;4.80;;
12654;SDS011;6392;44.644;11.448;2023-03-14T14:30:03;8.00;;;4.20;;
12654;SDS011;6392;44.644;11.448;2023-03-14T14:32:36;6.93;;;4.23;;
12654;SDS011;6392;44.644;11.448;2023-03-14T14:35:05;7.07;;;4.50;;
12654;SDS011;6392;44.644;11.448;2023-03-14T14:37:34;6.83;;;4.47;;
12654;SDS011;6392;44.644;11.448;2023-03-14T14:40:07;7.20;;;4.67;;
12654;SDS011;6392;44.644;11.448;2023-03-14T14:42:42;7.93;;;4.67;;
12654;SDS011;6392;44.644;11.448;2023-03-14T14:45:11;8.67;;;4.60;;
12654;SDS011;6392;44.644;11.448;2023-03-14T14:47:49;6.97;;;4.37;;
12654;SDS011;6392;44.644;11.448;2023-03-14T14:50:21;5.90;;;4.37;;
12654;SDS011;6392;44.644;11.448;2023-03-14T14:52:56;7.23;;;4.67;;
12654;SDS011;6392;44.644;11.448;2023-03-14T14:55:28;8.40;;;5.00;;
12654;SDS011;6392;44.644;11.448;2023-03-14T14:57:57;7.20;;;4.60;;
12654;SDS011;6392;44.644;11.448;2023-03-14T15:00:39;8.07;;;4.47;;
12654;SDS011;6392;44.644;11.448;2023-03-14T15:03:12;11.10;;;4.87;;
12654;SDS011;6392;44.644;11.448;2023-03-14T15:05:41;9.13;;;4.60;;
12654;SDS011;6392;44.644;11.448;2023-03-14T15:08:08;7.23;;;3.40;;